DLH891 EVRA-EDDF
Flight info
| Callsign | DLH891 |
|---|---|
| Flight time | N/A |
| Altitude | 36000 |
| Route | VALED M869 LEP M864 ADAXA DCT NINTA DCT DIPEB DCT GOSOT DCT BANUB DCT POVEL DCT RIMET/N0429F350 T157 KOKEB/N0363F230 T157 KERAX KERAX5A |
| Aircraft | A320/M-SDE2E3FGIJ1LORWXYZ/HB1 |
Departure
| Time | 2026-05-04 16:46 |
|---|---|
| Airport | Riga International Airport (EVRA) |
Arrival
| Time | N/A |
|---|---|
| Airport | Frankfurt Main Airport (EDDF) |
| Time | Latitude | Longitude | Altitude | Speed | Heading |
|---|---|---|---|---|---|
| 2026-05-04 16:29 | 56.92194 | 23.97743 | 44 ft | 0 kts | 5° |
| 2026-05-04 16:36 | 56.92178 | 23.97740 | 40 ft | 4 kts | 5° |
| 2026-05-04 16:36 | 56.92131 | 23.97733 | 39 ft | 4 kts | 359° |
| 2026-05-04 16:37 | 56.92090 | 23.97734 | 40 ft | 0 kts | 5° |
| 2026-05-04 16:40 | 56.92116 | 23.97728 | 42 ft | 2 kts | 339° |
| 2026-05-04 16:41 | 56.92134 | 23.97677 | 44 ft | 4 kts | 282° |
| 2026-05-04 16:41 | 56.92173 | 23.97476 | 44 ft | 5 kts | 2° |
| 2026-05-04 16:42 | 56.92347 | 23.97499 | 44 ft | 11 kts | 7° |
| 2026-05-04 16:43 | 56.92530 | 23.97535 | 44 ft | 15 kts | 4° |
| 2026-05-04 16:43 | 56.92762 | 23.97574 | 44 ft | 18 kts | 4° |
| 2026-05-04 16:43 | 56.92895 | 23.97596 | 44 ft | 20 kts | 6° |
| 2026-05-04 16:44 | 56.93457 | 23.97552 | 44 ft | 17 kts | 330° |
| 2026-05-04 16:45 | 56.93422 | 23.97282 | 42 ft | 9 kts | 185° |
| 2026-05-04 16:46 | 56.92079 | 23.97066 | 45 ft | 144 kts | 185° |
| 2026-05-04 16:46 | 56.89783 | 23.96697 | 964 ft | 169 kts | 188° |
| 2026-05-04 16:47 | 56.87334 | 23.96379 | 2061 ft | 189 kts | 192° |
| 2026-05-04 16:47 | 56.84596 | 23.95177 | 3117 ft | 212 kts | 221° |
| 2026-05-04 16:48 | 56.81713 | 23.88181 | 5316 ft | 239 kts | 236° |
| 2026-05-04 16:48 | 56.80695 | 23.85781 | 6250 ft | 240 kts | 236° |
| 2026-05-04 16:49 | 56.78608 | 23.80943 | 7971 ft | 245 kts | 235° |
| 2026-05-04 16:49 | 56.76379 | 23.76109 | 9648 ft | 252 kts | 230° |
| 2026-05-04 16:50 | 56.74655 | 23.70371 | 10394 ft | 283 kts | 261° |
| 2026-05-04 16:50 | 56.73644 | 23.63211 | 11677 ft | 296 kts | 251° |
| 2026-05-04 16:51 | 56.72161 | 23.56148 | 13125 ft | 303 kts | 249° |
| 2026-05-04 16:51 | 56.71399 | 23.52547 | 13813 ft | 307 kts | 250° |
| 2026-05-04 16:51 | 56.69900 | 23.45179 | 15095 ft | 312 kts | 250° |
| 2026-05-04 16:52 | 56.68423 | 23.37670 | 16363 ft | 317 kts | 251° |
| 2026-05-04 16:52 | 56.67683 | 23.33876 | 17002 ft | 320 kts | 251° |
| 2026-05-04 16:53 | 56.66172 | 23.26190 | 18226 ft | 325 kts | 251° |
| 2026-05-04 16:53 | 56.63865 | 23.14544 | 19930 ft | 329 kts | 251° |
| 2026-05-04 16:54 | 56.63088 | 23.10618 | 20484 ft | 330 kts | 251° |
| 2026-05-04 16:55 | 56.59943 | 22.94756 | 22628 ft | 336 kts | 251° |
| 2026-05-04 16:55 | 56.58339 | 22.86751 | 23613 ft | 339 kts | 251° |
| 2026-05-04 16:56 | 56.56722 | 22.78720 | 24429 ft | 342 kts | 251° |
| 2026-05-04 16:56 | 56.54240 | 22.66469 | 25591 ft | 347 kts | 250° |
| 2026-05-04 16:57 | 56.53403 | 22.62358 | 25992 ft | 349 kts | 250° |
| 2026-05-04 16:57 | 56.51706 | 22.54055 | 26753 ft | 352 kts | 250° |
| 2026-05-04 16:58 | 56.49137 | 22.41505 | 27978 ft | 355 kts | 250° |
| 2026-05-04 16:58 | 56.48276 | 22.37306 | 28352 ft | 357 kts | 250° |
| 2026-05-04 16:59 | 56.46531 | 22.28840 | 29074 ft | 360 kts | 250° |
| 2026-05-04 17:00 | 56.42966 | 22.11675 | 30213 ft | 368 kts | 249° |
| 2026-05-04 17:00 | 56.40214 | 21.98531 | 30871 ft | 376 kts | 249° |
| 2026-05-04 17:01 | 56.38345 | 21.89656 | 31368 ft | 379 kts | 250° |
| 2026-05-04 17:01 | 56.36465 | 21.80760 | 31950 ft | 380 kts | 250° |
| 2026-05-04 17:02 | 56.34574 | 21.71830 | 32585 ft | 381 kts | 250° |
| 2026-05-04 17:02 | 56.32678 | 21.62949 | 33157 ft | 382 kts | 250° |
| 2026-05-04 17:03 | 56.31717 | 21.58466 | 33411 ft | 383 kts | 250° |
| 2026-05-04 17:03 | 56.30750 | 21.53973 | 33656 ft | 384 kts | 250° |
| 2026-05-04 17:03 | 56.28819 | 21.45003 | 34248 ft | 383 kts | 250° |
| 2026-05-04 17:04 | 56.26884 | 21.36040 | 34717 ft | 384 kts | 250° |
| 2026-05-04 17:04 | 56.24940 | 21.27077 | 35169 ft | 385 kts | 250° |
| 2026-05-04 17:05 | 56.23311 | 21.19599 | 35527 ft | 385 kts | 250° |
| 2026-05-04 17:05 | 56.21026 | 21.09142 | 35875 ft | 384 kts | 250° |
| 2026-05-04 17:06 | 56.18423 | 20.97272 | 35898 ft | 385 kts | 250° |
| 2026-05-04 17:07 | 56.16419 | 20.88195 | 35881 ft | 396 kts | 250° |
| 2026-05-04 17:07 | 56.15742 | 20.85138 | 35881 ft | 399 kts | 250° |
| 2026-05-04 17:07 | 56.13323 | 20.74262 | 35881 ft | 405 kts | 249° |
| 2026-05-04 17:08 | 56.10166 | 20.60210 | 35871 ft | 405 kts | 249° |
| 2026-05-04 17:09 | 56.08053 | 20.50824 | 35876 ft | 406 kts | 249° |
| 2026-05-04 17:09 | 56.05938 | 20.41444 | 35877 ft | 406 kts | 249° |
| 2026-05-04 17:10 | 56.00627 | 20.18087 | 35902 ft | 406 kts | 249° |
| 2026-05-04 17:11 | 55.98480 | 20.08742 | 35871 ft | 405 kts | 249° |